Time,TemperatureF,DewpointF,PressureIn,WindDirection,WindDirectionDegrees,WindSpeedMPH,WindSpeedGustMPH,Humidity,HourlyPrecipIn,Conditions,Clouds,dailyrainin,SolarRadiationWatts/m^2,SoftwareType,DateUTC
2013-11-19 00:02:00,58.0,34.0,-100.00,North,349,9.0,15.0,40,0.00,,,0.09,0.000000,,2013-11-19 05:02:00,
2013-11-19 00:43:00,57.0,34.0,-100.00,North,356,10.0,18.0,41,0.00,,,0.09,0.000000,,2013-11-19 05:43:00,
2013-11-19 00:53:00,57.0,34.0,-100.00,North,356,10.0,18.0,41,0.00,,,0.09,0.000000,,2013-11-19 05:53:00,
2013-11-19 01:02:00,57.0,34.0,-100.00,North,356,10.0,18.0,41,0.00,,,0.09,0.000000,,2013-11-19 06:02:00,
2013-11-19 01:22:00,55.0,34.0,-100.00,North,353,8.0,19.0,45,0.00,,,0.09,0.000000,,2013-11-19 06:22:00,
2013-11-19 01:32:00,55.0,34.0,-100.00,North,353,8.0,19.0,45,0.00,,,0.09,0.000000,,2013-11-19 06:32:00,
2013-11-19 01:42:00,55.0,34.0,-100.00,North,353,8.0,19.0,45,0.00,,,0.09,0.000000,,2013-11-19 06:42:00,
2013-11-19 01:52:00,55.0,34.0,-100.00,North,353,8.0,19.0,45,0.00,,,0.09,0.000000,,2013-11-19 06:52:00,
2013-11-19 02:01:00,55.0,34.0,-100.00,North,353,8.0,19.0,45,0.00,,,0.09,0.000000,,2013-11-19 07:01:00,
2013-11-19 02:42:00,52.0,34.0,-100.00,North,354,6.0,14.0,51,0.00,,,0.09,0.000000,,2013-11-19 07:42:00,
2013-11-19 02:52:00,52.0,34.0,-100.00,North,354,6.0,14.0,51,0.00,,,0.09,0.000000,,2013-11-19 07:52:00,
2013-11-19 03:01:00,52.0,34.0,-100.00,North,354,6.0,14.0,51,0.00,,,0.09,0.000000,,2013-11-19 08:01:00,
2013-11-19 03:22:00,49.0,35.0,-100.00,North,4,4.0,9.0,59,0.00,,,0.09,0.000000,,2013-11-19 08:22:00,
2013-11-19 03:32:00,49.0,35.0,-100.00,North,4,4.0,9.0,59,0.00,,,0.09,0.000000,,2013-11-19 08:32:00,
2013-11-19 03:42:00,49.0,35.0,-100.00,North,4,4.0,9.0,59,0.00,,,0.09,0.000000,,2013-11-19 08:42:00,
2013-11-19 03:52:00,49.0,35.0,-100.00,North,4,4.0,9.0,59,0.00,,,0.09,0.000000,,2013-11-19 08:52:00,
2013-11-19 04:02:00,49.0,35.0,-100.00,North,4,4.0,9.0,59,0.00,,,0.09,0.000000,,2013-11-19 09:02:00,
2013-11-19 04:03:00,48.0,36.0,-100.00,North,352,5.0,7.0,62,0.00,,,0.09,0.000000,,2013-11-19 09:03:00,
2013-11-19 04:43:00,48.0,36.0,-100.00,North,352,5.0,7.0,62,0.00,,,0.09,0.000000,,2013-11-19 09:43:00,
2013-11-19 04:53:00,48.0,36.0,-100.00,North,352,5.0,7.0,62,0.00,,,0.09,0.000000,,2013-11-19 09:53:00,
2013-11-19 05:43:00,46.0,35.0,-100.00,North,351,5.0,6.0,65,0.00,,,0.09,0.000000,,2013-11-19 10:43:00,
2013-11-19 05:53:00,46.0,35.0,-100.00,North,351,5.0,6.0,65,0.00,,,0.09,0.000000,,2013-11-19 10:53:00,
2013-11-19 06:02:00,46.0,35.0,-100.00,North,351,5.0,6.0,65,0.00,,,0.09,0.000000,,2013-11-19 11:02:00,
2013-11-19 06:42:00,45.0,35.0,-100.00,North,357,5.0,8.0,67,0.00,,,0.01,0.000000,,2013-11-19 11:42:00,
2013-11-19 06:52:00,45.0,35.0,-100.00,North,357,5.0,8.0,67,0.00,,,0.01,0.000000,,2013-11-19 11:52:00,
2013-11-19 07:02:00,45.0,35.0,-100.00,North,357,5.0,8.0,67,0.00,,,0.01,0.000000,,2013-11-19 12:02:00,
2013-11-19 07:42:00,44.0,34.0,-100.00,North,7,4.0,7.0,69,0.00,,,0.00,0.000000,,2013-11-19 12:42:00,
2013-11-19 07:52:00,44.0,34.0,-100.00,North,7,4.0,7.0,69,0.00,,,0.00,0.000000,,2013-11-19 12:52:00,
2013-11-19 08:01:00,44.0,34.0,-100.00,North,7,4.0,7.0,69,0.00,,,0.00,0.000000,,2013-11-19 13:01:00,
2013-11-19 09:42:00,51.0,34.0,-100.00,NNE,23,11.0,16.0,52,-99.99,,,0.00,294.000000,,2013-11-19 14:42:00,
2013-11-19 09:52:00,51.0,34.0,-100.00,NNE,23,11.0,16.0,52,-99.99,,,0.00,294.000000,,2013-11-19 14:52:00,
2013-11-19 10:01:00,51.0,34.0,-100.00,NNE,23,11.0,16.0,52,-99.99,,,0.00,294.000000,,2013-11-19 15:01:00,
2013-11-19 10:03:00,56.0,34.0,-100.00,NE,45,12.0,19.0,44,0.00,,,0.00,590.000000,,2013-11-19 15:03:00,
2013-11-19 10:43:00,56.0,34.0,-100.00,NE,45,12.0,19.0,44,0.00,,,0.00,590.000000,,2013-11-19 15:43:00,
2013-11-19 10:54:00,56.0,34.0,-100.00,NE,45,12.0,19.0,44,0.00,,,0.00,590.000000,,2013-11-19 15:54:00,
2013-11-19 11:43:00,59.0,33.0,-100.00,NE,56,10.0,20.0,37,0.00,,,0.00,643.000000,,2013-11-19 16:43:00,
2013-11-19 11:53:00,59.0,33.0,-100.00,NE,56,10.0,20.0,37,0.00,,,0.00,643.000000,,2013-11-19 16:53:00,
2013-11-19 12:02:00,59.0,33.0,-100.00,NE,56,10.0,20.0,37,0.00,,,0.00,643.000000,,2013-11-19 17:02:00,
2013-11-19 12:23:00,62.0,33.0,-100.00,ENE,73,8.0,16.0,34,0.00,,,0.00,814.000000,,2013-11-19 17:23:00,
2013-11-19 12:32:00,62.0,33.0,-100.00,ENE,73,8.0,16.0,34,0.00,,,0.00,814.000000,,2013-11-19 17:32:00,
2013-11-19 12:43:00,62.0,33.0,-100.00,ENE,73,8.0,16.0,34,0.00,,,0.00,814.000000,,2013-11-19 17:43:00,
2013-11-19 12:52:00,62.0,33.0,-100.00,ENE,73,8.0,16.0,34,0.00,,,0.00,814.000000,,2013-11-19 17:52:00,
2013-11-19 13:02:00,62.0,33.0,-100.00,ENE,73,8.0,16.0,34,0.00,,,0.00,814.000000,,2013-11-19 18:02:00,
2013-11-19 13:23:00,62.0,31.0,-100.00,ENE,68,8.0,17.0,31,0.00,,,0.00,794.000000,,2013-11-19 18:23:00,
2013-11-19 13:32:00,62.0,31.0,-100.00,ENE,68,8.0,17.0,31,0.00,,,0.00,794.000000,,2013-11-19 18:32:00,
2013-11-19 13:42:00,62.0,31.0,-100.00,ENE,68,8.0,17.0,31,0.00,,,0.00,794.000000,,2013-11-19 18:42:00,
2013-11-19 13:52:00,62.0,31.0,-100.00,ENE,68,8.0,17.0,31,0.00,,,0.00,794.000000,,2013-11-19 18:52:00,
2013-11-19 14:01:00,62.0,31.0,-100.00,ENE,68,8.0,17.0,31,0.00,,,0.00,794.000000,,2013-11-19 19:01:00,
2013-11-19 14:22:00,65.0,31.0,-100.00,ENE,74,8.0,15.0,28,0.00,,,0.00,769.000000,,2013-11-19 19:22:00,
2013-11-19 14:32:00,65.0,31.0,-100.00,ENE,74,8.0,15.0,28,0.00,,,0.00,769.000000,,2013-11-19 19:32:00,
2013-11-19 14:42:00,65.0,31.0,-100.00,ENE,74,8.0,15.0,28,0.00,,,0.00,769.000000,,2013-11-19 19:42:00,
2013-11-19 14:52:00,65.0,31.0,-100.00,ENE,74,8.0,15.0,28,0.00,,,0.00,769.000000,,2013-11-19 19:52:00,
2013-11-19 15:02:00,65.0,31.0,-100.00,ENE,74,8.0,15.0,28,0.00,,,0.00,769.000000,,2013-11-19 20:02:00,
2013-11-19 15:42:00,66.0,31.0,-100.00,NE,56,9.0,14.0,27,0.00,,,0.00,659.000000,,2013-11-19 20:42:00,
2013-11-19 15:52:00,66.0,31.0,-100.00,NE,56,9.0,14.0,27,0.00,,,0.00,659.000000,,2013-11-19 20:52:00,
2013-11-19 16:02:00,66.0,31.0,-100.00,NE,56,9.0,14.0,27,0.00,,,0.00,659.000000,,2013-11-19 21:02:00,
2013-11-19 16:03:00,63.0,29.0,-100.00,ENE,59,7.0,14.0,28,0.00,,,0.00,428.000000,,2013-11-19 21:03:00,
2013-11-19 16:22:00,63.0,29.0,-100.00,ENE,59,7.0,14.0,28,0.00,,,0.00,428.000000,,2013-11-19 21:22:00,
2013-11-19 16:33:00,63.0,29.0,-100.00,ENE,59,7.0,14.0,28,0.00,,,0.00,428.000000,,2013-11-19 21:33:00,
2013-11-19 16:43:00,63.0,29.0,-100.00,ENE,59,7.0,14.0,28,0.00,,,0.00,428.000000,,2013-11-19 21:43:00,
2013-11-19 16:54:00,63.0,29.0,-100.00,ENE,59,7.0,14.0,28,0.00,,,0.00,428.000000,,2013-11-19 21:54:00,
2013-11-19 17:23:00,62.0,32.0,-100.00,ENE,62,6.0,10.0,32,0.00,,,0.00,196.000000,,2013-11-19 22:23:00,
2013-11-19 17:33:00,62.0,32.0,-100.00,ENE,62,6.0,10.0,32,0.00,,,0.00,196.000000,,2013-11-19 22:33:00,
2013-11-19 17:43:00,62.0,32.0,-100.00,ENE,62,6.0,10.0,32,0.00,,,0.00,196.000000,,2013-11-19 22:43:00,
2013-11-19 17:53:00,62.0,32.0,-100.00,ENE,62,6.0,10.0,32,0.00,,,0.00,196.000000,,2013-11-19 22:53:00,
2013-11-19 18:02:00,62.0,32.0,-100.00,ENE,62,6.0,10.0,32,0.00,,,0.00,196.000000,,2013-11-19 23:02:00,
2013-11-19 18:22:00,56.0,34.0,-100.00,ENE,65,4.0,7.0,44,0.00,,,0.00,32.000000,,2013-11-19 23:22:00,
2013-11-19 18:32:00,56.0,34.0,-100.00,ENE,65,4.0,7.0,44,0.00,,,0.00,32.000000,,2013-11-19 23:32:00,
2013-11-19 18:43:00,56.0,34.0,-100.00,ENE,65,4.0,7.0,44,0.00,,,0.00,32.000000,,2013-11-19 23:43:00,
2013-11-19 18:52:00,56.0,34.0,-100.00,ENE,65,4.0,7.0,44,0.00,,,0.00,32.000000,,2013-11-19 23:52:00,
2013-11-19 19:02:00,56.0,34.0,-100.00,ENE,65,4.0,7.0,44,0.00,,,0.00,32.000000,,2013-11-20 00:02:00,
2013-11-19 19:22:00,50.0,37.0,-100.00,NNE,31,3.0,5.0,60,0.00,,,0.00,0.000000,,2013-11-20 00:22:00,
2013-11-19 19:32:00,50.0,37.0,-100.00,NNE,31,3.0,5.0,60,0.00,,,0.00,0.000000,,2013-11-20 00:32:00,
2013-11-19 19:42:00,50.0,37.0,-100.00,NNE,31,3.0,5.0,60,0.00,,,0.00,0.000000,,2013-11-20 00:42:00,
2013-11-19 19:52:00,50.0,37.0,-100.00,NNE,31,3.0,5.0,60,0.00,,,0.00,0.000000,,2013-11-20 00:52:00,
2013-11-19 20:01:00,50.0,37.0,-100.00,NNE,31,3.0,5.0,60,0.00,,,0.00,0.000000,,2013-11-20 01:01:00,
2013-11-19 20:42:00,46.0,36.0,-100.00,NE,46,4.0,8.0,67,0.00,,,0.00,0.000000,,2013-11-20 01:42:00,
2013-11-19 20:52:00,46.0,36.0,-100.00,NE,46,4.0,8.0,67,0.00,,,0.00,0.000000,,2013-11-20 01:52:00,
2013-11-19 21:01:00,46.0,36.0,-100.00,NE,46,4.0,8.0,67,0.00,,,0.00,0.000000,,2013-11-20 02:01:00,
2013-11-19 21:22:00,50.0,34.0,-100.00,ENE,72,6.0,8.0,54,0.00,,,-99.99,0.000000,,2013-11-20 02:22:00,
2013-11-19 21:32:00,50.0,34.0,-100.00,ENE,72,6.0,8.0,54,0.00,,,-99.99,0.000000,,2013-11-20 02:32:00,
2013-11-19 21:42:00,50.0,34.0,-100.00,ENE,72,6.0,8.0,54,0.00,,,-99.99,0.000000,,2013-11-20 02:42:00,
2013-11-19 21:53:00,50.0,34.0,-100.00,ENE,72,6.0,8.0,54,0.00,,,-99.99,0.000000,,2013-11-20 02:53:00,
2013-11-19 22:02:00,50.0,34.0,-100.00,ENE,72,6.0,8.0,54,0.00,,,-99.99,0.000000,,2013-11-20 03:02:00,
2013-11-19 22:03:00,47.0,35.0,-100.00,NE,34,6.0,9.0,62,0.00,,,0.00,0.000000,,2013-11-20 03:03:00,
2013-11-19 22:44:00,47.0,35.0,-100.00,NE,34,6.0,9.0,62,0.00,,,0.00,0.000000,,2013-11-20 03:44:00,
2013-11-19 22:54:00,47.0,35.0,-100.00,NE,34,6.0,9.0,62,0.00,,,0.00,0.000000,,2013-11-20 03:54:00,
2013-11-19 23:43:00,49.0,33.0,-100.00,NE,54,5.0,7.0,53,0.00,,,0.00,0.000000,,2013-11-20 04:43:00,
2013-11-19 23:53:00,49.0,33.0,-100.00,NE,54,5.0,7.0,53,0.00,,,0.00,0.000000,,2013-11-20 04:53:00,